Jasper, Canada
Current Conditions -  °F | °C
As of 3:00 PM on Thursday 23 Oct 2014 (Local Time) from CYET Reporting Station
Clear Clear  
Wind Chill: 57°   Ceiling: Unl
Heat Index: 57°   Visibility: 9mi
Dew Point: 21°   Wind: 16mph
Humidity: 25%   Direction: 250°WSW
Pressure: 29.47"   Gusts: 29mph
Location:  52.87°N, 118.08°W
Report Text: CYET 232100Z AUTO 25014G25KT 9SM CLR 14/M06 A2947 RMK SLP992 DENSITY ALT 4100FT
Loading
Personal Weather Stations






























Interactive Weather Map
Tropical Storm Tracking
New forecast layout! Learn more

10-Day Weather Forecast

Advertisements
Track Severe Weather on mobile